Time;durP1;ratioP1;P1;durP2;ratioP2;P2;SDS_P1;SDS_P2;PMS_P1;PMS_P2;Temp;Humidity;BMP_temperature;BMP_pressure;BME280_temperature;BME280_humidity;BME280_pressure;Samples;Min_cycle;Max_cycle;Signal;HPM_P1;HPM_P2
2023/06/04 00:01:52;;;;;;;3.75;3.40;;;;;;;13.28;100.00;96356.78;5089761;28;20039;-66
2023/06/04 00:04:17;;;;;;;3.88;3.60;;;;;;;13.31;100.00;96367.06;5086979;28;20118;-66
2023/06/04 00:06:43;;;;;;;3.70;3.15;;;;;;;13.27;100.00;96355.97;5093307;28;20032;-66
2023/06/04 00:09:09;;;;;;;4.10;3.70;;;;;;;13.28;100.00;96359.41;5107047;28;20073;-66
2023/06/04 00:11:35;;;;;;;5.65;4.95;;;;;;;13.24;100.00;96355.41;5100060;28;20028;-66
2023/06/04 00:14:00;;;;;;;6.65;5.65;;;;;;;13.22;100.00;96349.41;5102981;28;20457;-66
2023/06/04 00:16:26;;;;;;;6.38;5.93;;;;;;;13.23;100.00;96354.53;5087566;28;20114;-66
2023/06/04 00:18:51;;;;;;;6.88;6.28;;;;;;;13.20;100.00;96340.81;5062673;28;20059;-65
2023/06/04 00:21:17;;;;;;;7.30;6.60;;;;;;;13.15;100.00;96339.41;5103356;28;20031;-66
2023/06/04 00:23:42;;;;;;;6.88;6.22;;;;;;;13.11;100.00;96335.38;5101976;28;20503;-65
2023/06/04 00:26:08;;;;;;;6.30;5.80;;;;;;;13.09;100.00;96342.59;5098043;28;20054;-66
2023/06/04 00:28:33;;;;;;;5.55;5.15;;;;;;;13.07;100.00;96346.38;5109575;28;20019;-66
2023/06/04 00:30:58;;;;;;;4.82;4.50;;;;;;;13.08;100.00;96340.13;5099609;28;20027;-65
2023/06/04 00:33:24;;;;;;;5.53;3.28;;;;;;;13.03;100.00;96333.44;5106037;28;20080;-66
2023/06/04 00:35:49;;;;;;;3.08;2.97;;;;;;;13.00;100.00;96335.53;5104809;28;20022;-65
2023/06/04 00:38:15;;;;;;;3.58;3.38;;;;;;;12.99;100.00;96328.59;5102284;27;20349;-66
2023/06/04 00:40:40;;;;;;;7.38;3.80;;;;;;;12.97;100.00;96326.06;5105720;28;20031;-66
2023/06/04 00:43:06;;;;;;;5.90;4.50;;;;;;;12.95;100.00;96316.63;5106151;28;20069;-65
2023/06/04 00:45:31;;;;;;;5.43;4.93;;;;;;;12.93;100.00;96318.56;5103947;28;20019;-66
2023/06/04 00:47:57;;;;;;;7.05;4.75;;;;;;;12.93;100.00;96323.84;5098968;27;20028;-66
2023/06/04 00:50:24;;;;;;;6.90;5.10;;;;;;;12.92;100.00;96320.38;5097775;28;20027;-66
2023/06/04 00:52:51;;;;;;;6.57;5.10;;;;;;;12.92;100.00;96319.53;5080928;28;20023;-65
2023/06/04 00:55:19;;;;;;;5.72;4.88;;;;;;;12.90;100.00;96323.16;5102125;28;20032;-66
2023/06/04 00:57:45;;;;;;;4.90;3.83;;;;;;;12.93;100.00;96315.91;5100893;28;20036;-66
2023/06/04 01:00:11;;;;;;;4.40;4.00;;;;;;;12.92;100.00;96322.19;5105870;28;20080;-66
2023/06/04 01:02:40;;;;;;;4.15;3.75;;;;;;;12.84;100.00;96320.28;5085352;28;20024;-66
2023/06/04 01:05:29;;;;;;;5.88;4.03;;;;;;;12.82;100.00;96316.91;5107328;28;20027;-65
2023/06/04 01:07:56;;;;;;;6.13;3.83;;;;;;;12.82;100.00;96316.91;5100105;27;20028;-66
2023/06/04 01:10:22;;;;;;;8.98;4.03;;;;;;;12.81;100.00;96317.88;5098707;28;20517;-65
2023/06/04 01:12:47;;;;;;;5.57;4.03;;;;;;;12.78;100.00;96312.88;5101847;28;20059;-66
2023/06/04 01:15:13;;;;;;;4.05;3.63;;;;;;;12.77;100.00;96319.13;5103081;28;20394;-66
2023/06/04 01:17:46;;;;;;;3.70;3.40;;;;;;;12.79;100.00;96318.03;5104483;28;20031;-66
2023/06/04 01:20:12;;;;;;;4.07;3.78;;;;;;;12.81;100.00;96323.16;5102840;28;20425;-66
2023/06/04 01:22:47;;;;;;;4.35;4.05;;;;;;;12.77;100.00;96316.50;5099456;28;20057;-65
2023/06/04 01:25:19;;;;;;;4.47;4.05;;;;;;;12.80;100.00;96321.50;5107804;28;20070;-66
2023/06/04 01:27:52;;;;;;;5.22;4.45;;;;;;;12.89;100.00;96318.84;5104756;28;20423;-65
2023/06/04 01:30:20;;;;;;;4.28;3.95;;;;;;;12.93;100.00;96323.84;5097755;28;20057;-66
2023/06/04 01:32:46;;;;;;;4.35;3.95;;;;;;;12.86;100.00;96327.06;5103446;28;20027;-66
2023/06/04 01:35:12;;;;;;;4.30;4.00;;;;;;;12.81;100.00;96318.72;5113528;28;20506;-65
2023/06/04 01:37:37;;;;;;;5.15;4.70;;;;;;;12.81;100.00;96312.59;5107923;27;20439;-66
2023/06/04 01:40:04;;;;;;;5.05;4.72;;;;;;;12.78;100.00;96316.38;5104159;28;20031;-66
2023/06/04 01:42:30;;;;;;;5.55;5.05;;;;;;;12.77;100.00;96311.22;5112002;28;20024;-65
2023/06/04 01:44:55;;;;;;;5.68;4.70;;;;;;;12.73;100.00;96314.16;5101048;28;20505;-66
2023/06/04 01:47:21;;;;;;;5.05;4.68;;;;;;;12.73;100.00;96315.97;5110271;27;20058;-65
2023/06/04 01:49:46;;;;;;;6.38;5.03;;;;;;;12.73;100.00;96316.78;5107507;28;20028;-65
2023/06/04 01:52:11;;;;;;;5.57;5.05;;;;;;;12.72;100.00;96324.88;5105064;28;20078;-65
2023/06/04 01:54:38;;;;;;;4.93;4.53;;;;;;;12.71;100.00;96320.53;5105531;28;20031;-66
2023/06/04 01:57:05;;;;;;;5.50;5.10;;;;;;;12.69;100.00;96325.13;5083123;28;20020;-66
2023/06/04 01:59:31;;;;;;;7.70;4.82;;;;;;;12.66;100.00;96323.59;5114108;28;20032;-66
2023/06/04 02:01:57;;;;;;;5.05;4.70;;;;;;;12.62;100.00;96322.22;5108616;28;20062;-65
2023/06/04 02:04:23;;;;;;;4.35;4.10;;;;;;;12.56;100.00;96318.31;5108472;28;20024;-66
2023/06/04 02:06:50;;;;;;;4.93;4.53;;;;;;;12.51;100.00;96325.84;5108037;27;20391;-65
2023/06/04 02:09:15;;;;;;;4.53;4.20;;;;;;;12.48;100.00;96318.16;5101308;28;20079;-66
2023/06/04 02:11:41;;;;;;;6.75;5.07;;;;;;;12.49;100.00;96321.66;5099256;28;20113;-66
2023/06/04 02:14:06;;;;;;;3.58;3.38;;;;;;;12.49;100.00;96313.72;5106337;28;20038;-66
2023/06/04 02:16:32;;;;;;;3.60;3.15;;;;;;;12.51;100.00;96343.47;5105977;28;20031;-66
2023/06/04 02:18:58;;;;;;;3.65;3.35;;;;;;;12.51;100.00;96346.13;5107665;28;20053;-66
2023/06/04 02:21:24;;;;;;;4.43;3.20;;;;;;;12.51;100.00;96351.41;5107900;28;20379;-66
2023/06/04 02:23:50;;;;;;;3.97;3.58;;;;;;;12.48;100.00;96341.13;5109455;28;20122;-65
2023/06/04 02:26:15;;;;;;;3.90;3.10;;;;;;;12.46;100.00;96346.53;5075200;28;20058;-66
2023/06/04 02:28:41;;;;;;;5.28;4.60;;;;;;;12.43;100.00;96347.66;5102177;28;20095;-66
2023/06/04 02:31:06;;;;;;;5.72;5.10;;;;;;;12.41;100.00;96346.09;5095012;28;20028;-66
2023/06/04 02:33:32;;;;;;;5.07;4.68;;;;;;;12.42;100.00;96345.13;5085959;28;20030;-66
2023/06/04 02:35:57;;;;;;;4.43;3.90;;;;;;;12.43;100.00;96342.38;5083127;28;20480;-67
2023/06/04 02:38:23;;;;;;;4.10;3.70;;;;;;;12.48;100.00;96349.03;5114859;27;20476;-66
2023/06/04 02:40:48;;;;;;;5.68;4.10;;;;;;;12.47;100.00;96348.19;5110346;28;20023;-66
2023/06/04 02:43:13;;;;;;;5.53;5.03;;;;;;;12.45;100.00;96350.13;5105939;28;20641;-66
2023/06/04 02:45:39;;;;;;;5.55;5.05;;;;;;;12.45;100.00;96345.69;5097940;27;20466;-65
2023/06/04 02:48:04;;;;;;;4.93;4.63;;;;;;;12.46;100.00;96351.81;5107597;28;20032;-66
2023/06/04 02:50:30;;;;;;;5.50;4.53;;;;;;;12.44;100.00;96348.47;5097759;28;20028;-66
2023/06/04 02:52:55;;;;;;;4.43;4.13;;;;;;;12.46;100.00;96351.81;5102956;28;20020;-65
2023/06/04 02:55:20;;;;;;;4.47;4.00;;;;;;;12.45;100.00;96350.13;5106245;28;20032;-65
2023/06/04 02:57:46;;;;;;;3.90;3.50;;;;;;;12.51;100.00;96359.31;5111210;28;20031;-66
2023/06/04 03:00:13;;;;;;;3.60;3.20;;;;;;;12.54;100.00;96359.03;5105298;28;20031;-66
2023/06/04 03:02:44;;;;;;;3.35;3.15;;;;;;;12.54;100.00;96359.91;5108638;28;20024;-66
2023/06/04 03:05:12;;;;;;;4.65;3.53;;;;;;;12.64;100.00;96366.97;5080832;28;20028;-66
2023/06/04 03:07:38;;;;;;;4.78;4.38;;;;;;;12.53;100.00;96358.22;5103472;27;20539;-66
2023/06/04 03:10:04;;;;;;;6.10;4.80;;;;;;;12.50;100.00;96361.16;5107304;28;20031;-66
2023/06/04 03:12:30;;;;;;;6.38;5.88;;;;;;;12.44;100.00;96364.31;5094352;28;20039;-66
2023/06/04 03:14:55;;;;;;;6.38;5.78;;;;;;;12.43;100.00;96362.66;5100823;28;20023;-66
2023/06/04 03:17:21;;;;;;;7.15;6.05;;;;;;;12.43;100.00;96363.50;5098844;28;20130;-66
2023/06/04 03:19:47;;;;;;;8.13;6.65;;;;;;;12.48;100.00;96367.53;5104568;28;20020;-65
2023/06/04 03:22:13;;;;;;;6.80;6.28;;;;;;;12.50;100.00;96368.22;5103012;28;20095;-66
2023/06/04 03:24:40;;;;;;;6.25;5.65;;;;;;;12.48;100.00;96365.69;5102375;28;20069;-65
2023/06/04 03:27:07;;;;;;;7.03;6.40;;;;;;;12.48;100.00;96368.34;5107617;28;20027;-65
2023/06/04 03:29:33;;;;;;;6.70;6.10;;;;;;;12.46;100.00;96367.66;5102000;28;20053;-66
2023/06/04 03:32:00;;;;;;;6.30;5.80;;;;;;;12.48;100.00;96359.59;5079225;28;20028;-66
2023/06/04 03:34:25;;;;;;;8.40;6.03;;;;;;;12.52;100.00;96358.34;5104227;28;20110;-65
2023/06/04 03:36:52;;;;;;;5.13;4.70;;;;;;;12.55;100.00;96366.00;5089182;27;20050;-65
2023/06/04 03:39:17;;;;;;;6.57;5.97;;;;;;;12.56;100.00;96368.50;5113412;27;20042;-66
2023/06/04 03:41:43;;;;;;;6.78;6.10;;;;;;;12.53;100.00;96352.94;5106052;28;20095;-66
2023/06/04 03:44:09;;;;;;;7.05;6.35;;;;;;;12.68;100.00;96361.28;5082202;28;20058;-65
2023/06/04 03:46:35;;;;;;;10.23;9.25;;;;;;;12.71;100.00;96354.88;5084302;28;20028;-65
2023/06/04 03:49:01;;;;;;;12.27;11.10;;;;;;;12.57;100.00;96353.47;5096330;28;20543;-66
2023/06/04 03:51:26;;;;;;;13.23;12.13;;;;;;;12.46;100.00;96347.38;5096388;28;20020;-65
2023/06/04 03:53:52;;;;;;;13.23;12.13;;;;;;;12.42;100.00;96350.41;5101173;28;20051;-65
2023/06/04 03:56:17;;;;;;;13.18;12.00;;;;;;;12.41;100.00;96354.03;5108593;28;20099;-66
2023/06/04 03:58:43;;;;;;;11.23;10.18;;;;;;;12.39;100.00;96354.19;5106568;28;20508;-65
2023/06/04 04:01:10;;;;;;;9.70;8.90;;;;;;;12.42;100.00;96356.53;5100291;28;20020;-65
2023/06/04 04:03:36;;;;;;;13.48;8.35;;;;;;;12.42;100.00;96351.25;5112833;28;20028;-66
2023/06/04 04:06:01;;;;;;;5.57;5.18;;;;;;;12.43;100.00;96347.66;5099542;28;20073;-66
2023/06/04 04:08:31;;;;;;;6.63;6.03;;;;;;;12.44;100.00;96346.69;5107203;28;20076;-66
2023/06/04 04:10:59;;;;;;;7.85;7.05;;;;;;;12.46;100.00;96338.59;5109919;28;20079;-66
2023/06/04 04:13:24;;;;;;;7.72;6.97;;;;;;;12.44;100.00;96351.09;5100929;28;20511;-65
2023/06/04 04:15:53;;;;;;;9.18;5.60;;;;;;;12.43;100.00;96352.94;5083101;28;20051;-65
2023/06/04 04:18:20;;;;;;;6.57;5.97;;;;;;;12.44;100.00;96351.09;5085585;28;20032;-65
2023/06/04 04:20:46;;;;;;;7.15;6.40;;;;;;;12.47;100.00;96348.19;5105121;28;20493;-65
2023/06/04 04:23:12;;;;;;;5.97;5.32;;;;;;;12.51;100.00;96351.41;5076683;28;20027;-65
2023/06/04 04:25:38;;;;;;;4.95;4.55;;;;;;;12.54;100.00;96349.31;5076274;28;20019;-65
2023/06/04 04:28:06;;;;;;;4.57;3.42;;;;;;;12.55;100.00;96348.34;5093137;28;20253;-65
2023/06/04 04:30:35;;;;;;;3.70;3.40;;;;;;;12.55;100.00;96353.63;5104635;28;20027;-65
2023/06/04 04:33:06;;;;;;;4.97;4.25;;;;;;;12.56;100.00;96347.38;5098976;28;20047;-65
2023/06/04 04:35:32;;;;;;;8.98;7.47;;;;;;;12.58;100.00;96349.88;5109267;28;20435;-65
2023/06/04 04:38:04;;;;;;;7.57;6.88;;;;;;;12.55;100.00;96347.50;5107573;27;20085;-65
2023/06/04 04:40:30;;;;;;;7.53;6.78;;;;;;;12.52;100.00;96342.50;5104167;28;20099;-66
2023/06/04 04:42:56;;;;;;;6.82;6.22;;;;;;;12.52;100.00;96347.78;5098346;28;20384;-65
2023/06/04 04:45:21;;;;;;;6.65;6.10;;;;;;;12.55;100.00;96348.34;5094713;28;20032;-66
2023/06/04 04:47:47;;;;;;;7.22;6.15;;;;;;;12.59;100.00;96347.09;5101273;27;20053;-65
2023/06/04 04:50:13;;;;;;;5.78;5.38;;;;;;;12.62;100.00;96348.63;5106500;28;20111;-66
2023/06/04 04:52:38;;;;;;;5.85;5.45;;;;;;;12.61;100.00;96346.97;5094495;28;20061;-65
2023/06/04 04:55:04;;;;;;;8.40;5.85;;;;;;;12.64;100.00;96356.41;5095056;28;20487;-66
2023/06/04 04:57:30;;;;;;;6.45;5.95;;;;;;;12.67;100.00;96356.13;5108071;28;20027;-65
2023/06/04 04:59:55;;;;;;;5.30;4.90;;;;;;;12.71;100.00;96354.88;5094449;28;20103;-66
2023/06/04 05:02:21;;;;;;;6.35;5.75;;;;;;;12.73;100.00;96359.06;5103691;28;20091;-66
2023/06/04 05:04:46;;;;;;;6.65;6.15;;;;;;;12.80;100.00;96364.63;5098645;28;20041;-66
2023/06/04 05:07:12;;;;;;;6.63;6.07;;;;;;;12.83;100.00;96364.34;5085918;28;20024;-66
2023/06/04 05:09:37;;;;;;;8.88;6.43;;;;;;;12.89;100.00;96373.53;5096034;28;20059;-65
2023/06/04 05:12:03;;;;;;;8.48;6.43;;;;;;;12.93;100.00;96366.13;5114759;28;20514;-66
2023/06/04 05:14:28;;;;;;;8.60;7.05;;;;;;;13.06;100.00;96373.81;5097028;28;20473;-66
2023/06/04 05:16:56;;;;;;;6.90;6.30;;;;;;;13.09;100.00;96369.03;5097940;28;20032;-65
2023/06/04 05:19:22;;;;;;;7.32;6.72;;;;;;;13.03;100.00;96367.78;5094827;28;20016;-65
2023/06/04 05:21:48;;;;;;;6.80;6.30;;;;;;;13.02;100.00;96365.31;5085554;28;20032;-66
2023/06/04 05:24:14;;;;;;;6.53;5.25;;;;;;;13.07;100.00;96372.81;5109811;28;20074;-65
2023/06/04 05:26:40;;;;;;;7.82;6.13;;;;;;;13.11;100.00;96367.09;5101349;28;20089;-66
2023/06/04 05:29:05;;;;;;;11.32;10.23;;;;;;;13.15;100.00;96372.94;5103334;28;20024;-66
2023/06/04 05:31:34;;;;;;;18.35;16.73;;;;;;;13.24;100.00;96364.16;5105944;28;20048;-66
2023/06/04 05:34:04;;;;;;;14.70;13.35;;;;;;;13.27;100.00;96363.03;5101509;28;20391;-66
2023/06/04 05:36:30;;;;;;;11.35;10.50;;;;;;;13.36;100.00;96369.28;5084092;28;20024;-65
2023/06/04 05:38:59;;;;;;;10.07;9.27;;;;;;;13.44;100.00;96357.06;5122590;28;20033;-66
2023/06/04 05:41:27;;;;;;;10.57;9.68;;;;;;;13.45;100.00;96358.72;5095732;28;20087;-65
2023/06/04 05:43:53;;;;;;;10.02;9.23;;;;;;;13.46;100.00;96360.38;5094154;28;20031;-65
2023/06/04 05:46:19;;;;;;;9.73;8.23;;;;;;;13.50;100.00;96352.16;5075713;28;20024;-66
2023/06/04 05:48:45;;;;;;;9.27;7.47;;;;;;;13.55;100.00;96352.56;5103897;28;20055;-65
2023/06/04 05:51:10;;;;;;;7.90;7.30;;;;;;;13.60;100.00;96358.28;5096337;28;20020;-65
2023/06/04 05:53:35;;;;;;;7.20;6.60;;;;;;;13.66;100.00;96355.03;5094026;28;20028;-66
2023/06/04 05:56:01;;;;;;;7.90;7.30;;;;;;;13.76;100.00;96352.34;5105599;28;20020;-65
2023/06/04 05:58:26;;;;;;;7.63;6.85;;;;;;;13.84;100.00;96360.38;5107725;28;20153;-65
2023/06/04 06:00:51;;;;;;;6.05;5.55;;;;;;;13.89;100.00;96359.94;5110620;28;20031;-65
2023/06/04 06:03:17;;;;;;;6.20;4.25;;;;;;;13.96;100.00;96363.66;5100394;28;20035;-65
2023/06/04 06:05:43;;;;;;;5.22;4.80;;;;;;;14.03;100.00;96361.28;5107900;28;20115;-65
2023/06/04 06:08:11;;;;;;;4.55;4.15;;;;;;;14.11;100.00;96365.84;5108336;28;20054;-66
2023/06/04 06:10:37;;;;;;;6.93;3.92;;;;;;;14.20;100.00;96367.59;5097644;28;20052;-65
2023/06/04 06:13:02;;;;;;;6.25;5.72;;;;;;;14.31;100.00;96364.75;5107266;28;20026;-65
2023/06/04 06:15:28;;;;;;;5.80;5.30;;;;;;;14.44;100.00;96361.75;5079744;28;20043;-66
2023/06/04 06:17:54;;;;;;;6.28;5.70;;;;;;;14.58;100.00;96367.47;5098743;28;20370;-66
2023/06/04 06:20:21;;;;;;;6.25;5.65;;;;;;;14.68;100.00;96359.47;5087705;28;20023;-66
2023/06/04 06:22:47;;;;;;;6.88;6.20;;;;;;;14.66;100.00;96364.94;5106793;28;20052;-66
2023/06/04 06:25:13;;;;;;;9.98;9.05;;;;;;;14.64;100.00;96358.09;5116655;28;20110;-65
2023/06/04 06:27:39;;;;;;;10.20;8.98;;;;;;;14.68;100.00;96362.13;5115897;28;20016;-65
2023/06/04 06:30:08;;;;;;;6.20;5.80;;;;;;;14.65;100.00;96359.78;5084686;28;20557;-66
2023/06/04 06:32:33;;;;;;;5.55;5.15;;;;;;;14.69;100.00;96361.13;5104364;28;20028;-65
2023/06/04 06:34:59;;;;;;;4.78;3.65;;;;;;;14.57;100.00;96369.31;5092934;28;20189;-65
2023/06/04 06:37:25;;;;;;;5.13;4.03;;;;;;;14.56;100.00;96367.66;5111898;27;20549;-66
2023/06/04 06:39:50;;;;;;;9.10;8.10;;;;;;;14.63;100.00;96370.53;5100534;28;20024;-65
2023/06/04 06:42:18;;;;;;;11.75;10.73;;;;;;;14.66;100.00;96366.72;5116311;28;20073;-65
2023/06/04 06:44:44;;;;;;;10.77;9.88;;;;;;;14.81;100.00;96380.31;5112268;28;20707;-66
2023/06/04 06:47:13;;;;;;;9.10;7.82;;;;;;;14.86;100.00;96373.59;5109527;28;20110;-65
2023/06/04 06:49:39;;;;;;;5.57;5.05;;;;;;;14.91;100.00;96375.78;5111461;28;20031;-65
2023/06/04 06:52:04;;;;;;;4.18;3.78;;;;;;;14.92;100.00;96366.84;5116547;28;20101;-65
2023/06/04 06:54:30;;;;;;;5.32;3.03;;;;;;;14.90;100.00;96364.34;5110487;28;20039;-66
2023/06/04 06:56:55;;;;;;;3.90;3.10;;;;;;;14.92;100.00;96358.91;5111348;28;20923;-66
2023/06/04 06:59:21;;;;;;;2.80;2.60;;;;;;;14.96;100.00;96360.25;5109006;28;20023;-66
2023/06/04 07:01:47;;;;;;;3.35;3.05;;;;;;;15.03;100.00;96360.47;5103809;28;20035;-66
2023/06/04 07:04:12;;;;;;;3.63;3.35;;;;;;;15.06;100.00;96365.47;5109330;28;20617;-67
2023/06/04 07:06:38;;;;;;;3.50;3.30;;;;;;;15.10;100.00;96363.34;5111089;27;20492;-66
2023/06/04 07:09:05;;;;;;;4.88;3.00;;;;;;;15.12;100.00;96372.81;5105796;28;20040;-68
2023/06/04 07:11:31;;;;;;;3.90;3.50;;;;;;;15.17;100.00;96370.53;5097436;28;20020;-67
2023/06/04 07:13:56;;;;;;;5.22;3.22;;;;;;;15.18;100.00;96369.56;5110400;28;20394;-67
2023/06/04 07:16:21;;;;;;;3.88;3.30;;;;;;;15.21;100.00;96370.22;5108766;28;20115;-67
2023/06/04 07:18:49;;;;;;;3.60;3.33;;;;;;;15.25;100.00;96376.88;5116004;28;20035;-67
2023/06/04 07:21:14;;;;;;;4.63;3.50;;;;;;;15.33;100.00;96374.28;5115067;28;20098;-68
2023/06/04 07:23:40;;;;;;;4.97;3.28;;;;;;;15.38;100.00;96371.16;5083999;28;20048;-67
2023/06/04 07:26:05;;;;;;;3.63;3.13;;;;;;;15.41;100.00;96370.84;5108420;28;20055;-67
2023/06/04 07:28:32;;;;;;;5.30;3.33;;;;;;;15.33;100.00;96371.63;5096275;28;20094;-67
2023/06/04 07:30:58;;;;;;;3.45;3.15;;;;;;;15.35;100.00;96372.31;5099121;28;20214;-68
2023/06/04 07:33:24;;;;;;;6.03;2.90;;;;;;;15.34;100.00;96367.97;5103045;28;20016;-68
2023/06/04 07:35:50;;;;;;;3.03;2.83;;;;;;;15.40;100.00;96369.19;5096400;28;20024;-67
2023/06/04 07:38:15;;;;;;;3.40;3.10;;;;;;;15.49;100.00;96373.59;5093150;28;20107;-67
2023/06/04 07:40:41;;;;;;;3.10;2.90;;;;;;;15.55;100.00;96369.44;5095467;28;20092;-67
2023/06/04 07:43:06;;;;;;;5.40;2.97;;;;;;;15.63;100.00;96366.00;5114533;28;20035;-68
2023/06/04 07:45:31;;;;;;;5.68;3.40;;;;;;;15.71;100.00;96361.59;5110128;28;20027;-66
2023/06/04 07:47:57;;;;;;;3.58;3.20;;;;;;;15.75;100.00;96357.63;5101108;27;20055;-66
2023/06/04 07:50:22;;;;;;;3.40;3.20;;;;;;;15.76;100.00;96351.31;5077062;28;20024;-66
2023/06/04 07:52:48;;;;;;;2.90;2.70;;;;;;;15.84;100.00;96350.53;5102266;28;20476;-66
2023/06/04 07:55:16;;;;;;;2.42;2.33;;;;;;;15.91;100.00;96340.16;5103308;28;20046;-67
2023/06/04 07:57:42;;;;;;;3.20;3.00;;;;;;;15.96;100.00;96331.72;5099494;28;20028;-66
2023/06/04 08:00:08;;;;;;;3.22;2.97;;;;;;;16.04;100.00;96334.38;5109391;28;20020;-66
2023/06/04 08:02:33;;;;;;;5.07;3.20;;;;;;;16.23;100.00;96343.09;5087604;28;20372;-66
2023/06/04 08:05:00;;;;;;;6.00;3.13;;;;;;;16.41;100.00;96341.16;5098583;28;20032;-66
2023/06/04 08:07:25;;;;;;;3.25;2.92;;;;;;;16.41;100.00;96342.94;5099403;27;20476;-68
2023/06/04 08:09:51;;;;;;;6.43;3.20;;;;;;;16.53;100.00;96340.81;5100731;28;20088;-66
2023/06/04 08:12:17;;;;;;;3.33;3.03;;;;;;;16.75;100.00;96339.38;5095566;28;20031;-65
2023/06/04 08:14:42;;;;;;;2.75;2.53;;;;;;;17.16;100.00;96330.56;5091904;28;20099;-66
2023/06/04 08:17:08;;;;;;;4.55;2.90;;;;;;;17.92;100.00;96322.25;5098013;28;20464;-65
2023/06/04 08:19:33;;;;;;;3.53;3.22;;;;;;;18.80;100.00;96287.44;5110287;28;20016;-65
2023/06/04 08:21:59;;;;;;;3.15;2.95;;;;;;;19.51;100.00;96253.41;5098975;28;20143;-65
2023/06/04 08:24:25;;;;;;;2.63;2.53;;;;;;;19.80;100.00;96217.03;5097165;28;20111;-65
2023/06/04 08:26:51;;;;;;;2.40;2.30;;;;;;;20.22;100.00;96191.38;5100680;28;20492;-65
2023/06/04 08:29:17;;;;;;;3.05;2.63;;;;;;;20.40;100.00;96141.97;5097116;28;20023;-65
2023/06/04 08:31:42;;;;;;;2.90;2.70;;;;;;;20.31;100.00;96133.25;5101041;28;20027;-66
2023/06/04 08:34:08;;;;;;;2.88;2.65;;;;;;;20.59;100.00;96146.66;5101106;28;20024;-66
2023/06/04 08:36:33;;;;;;;2.47;2.20;;;;;;;20.34;100.00;96111.50;5100469;27;20091;-65
2023/06/04 08:38:59;;;;;;;2.40;2.20;;;;;;;20.21;100.00;96114.06;5101796;27;20058;-66
2023/06/04 08:41:27;;;;;;;2.35;2.25;;;;;;;20.18;100.00;96133.97;5092417;28;20054;-65
2023/06/04 08:44:01;;;;;;;2.40;2.20;;;;;;;20.22;100.00;96097.00;5102446;28;20035;-66
2023/06/04 08:46:31;;;;;;;2.38;2.25;;;;;;;20.68;100.00;96127.81;5086245;28;20027;-66
2023/06/04 08:49:03;;;;;;;2.85;2.30;;;;;;;21.18;100.00;96107.13;5106191;28;20040;-66
2023/06/04 08:51:33;;;;;;;2.15;2.00;;;;;;;20.91;100.00;96073.22;5076800;28;20074;-67
2023/06/04 08:53:59;;;;;;;3.35;2.28;;;;;;;20.87;100.00;96086.97;5092652;28;20446;-68
2023/06/04 08:56:26;;;;;;;2.03;1.92;;;;;;;21.10;100.00;96096.56;5098650;28;20016;-66
2023/06/04 08:58:52;;;;;;;2.05;1.95;;;;;;;21.60;100.00;96060.72;5103920;27;20027;-65
2023/06/04 09:01:18;;;;;;;2.40;2.20;;;;;;;22.10;100.00;96043.47;5104322;28;20069;-65
2023/06/04 09:03:45;;;;;;;3.65;2.33;;;;;;;22.21;100.00;96029.44;5090299;28;20024;-65
2023/06/04 09:06:11;;;;;;;2.55;2.35;;;;;;;22.02;100.00;96039.97;5106051;27;20028;-64
2023/06/04 09:08:41;;;;;;;2.47;2.28;;;;;;;22.36;100.00;96052.53;5102418;28;20118;-65
2023/06/04 09:11:10;;;;;;;2.25;2.05;;;;;;;22.47;100.00;96030.50;5107966;28;20063;-65
2023/06/04 09:13:36;;;;;;;2.10;2.00;;;;;;;22.57;100.00;96020.13;5101464;28;20111;-65
2023/06/04 09:16:08;;;;;;;2.28;1.65;;;;;;;22.78;100.00;96020.09;5085040;28;20055;-65
2023/06/04 09:18:33;;;;;;;4.07;1.90;;;;;;;23.38;100.00;96009.13;5105217;28;20059;-65
2023/06/04 09:21:08;;;;;;;2.10;1.90;;;;;;;23.55;100.00;95992.50;5102916;28;20573;-64
2023/06/04 09:23:44;;;;;;;2.22;2.10;;;;;;;23.57;100.00;95958.97;5103301;28;20035;-65
2023/06/04 09:26:10;;;;;;;5.03;2.15;;;;;;;23.33;100.00;95947.19;5103428;28;20024;-65
2023/06/04 09:28:40;;;;;;;2.33;2.13;;;;;;;23.18;100.00;95972.44;5105307;28;20024;-65
2023/06/04 09:31:15;;;;;;;1.88;1.77;;;;;;;23.67;100.00;95971.94;5097040;28;20088;-65
2023/06/04 09:33:45;;;;;;;2.15;2.05;;;;;;;23.75;100.00;95954.72;5100422;28;20116;-64
2023/06/04 09:36:10;;;;;;;2.28;2.10;;;;;;;23.85;100.00;95959.59;5098369;28;20028;-64
2023/06/04 09:38:36;;;;;;;2.40;2.20;;;;;;;23.82;100.00;95968.09;5105194;28;20073;-65
2023/06/04 09:41:06;;;;;;;2.30;2.13;;;;;;;24.21;100.00;95924.97;5100046;28;20035;-65
2023/06/04 09:43:32;;;;;;;1.60;1.50;;;;;;;24.30;100.00;95902.09;5099033;28;20059;-65
2023/06/04 09:46:11;;;;;;;2.00;1.83;;;;;;;23.92;100.00;95909.28;5110477;28;20038;-65
2023/06/04 09:48:37;;;;;;;1.85;1.75;;;;;;;24.21;100.00;95923.13;5103495;28;20047;-65
2023/06/04 09:51:10;;;;;;;2.65;2.28;;;;;;;24.24;100.00;95893.06;5078249;28;20059;-65
2023/06/04 09:53:37;;;;;;;2.38;2.20;;;;;;;23.96;100.00;95920.41;5099451;28;20436;-65
2023/06/04 09:56:04;;;;;;;3.10;2.60;;;;;;;24.43;100.00;95914.59;5114346;28;20028;-65
2023/06/04 09:58:30;;;;;;;2.75;2.55;;;;;;;24.48;100.00;95936.28;5107660;28;20059;-65
2023/06/04 10:00:58;;;;;;;3.10;2.90;;;;;;;24.78;100.00;95945.47;5109913;28;20039;-65
2023/06/04 10:03:32;;;;;;;3.40;3.10;;;;;;;24.56;100.00;95935.16;5085911;28;20031;-65
2023/06/04 10:06:00;;;;;;;4.47;3.40;;;;;;;24.88;100.00;95943.91;5110262;27;20027;-65
2023/06/04 10:08:30;;;;;;;2.50;2.40;;;;;;;24.74;100.00;95918.97;5106915;28;20049;-65
2023/06/04 10:11:01;;;;;;;4.60;3.40;;;;;;;24.67;100.00;95925.50;5103269;28;20131;-65
2023/06/04 10:13:30;;;;;;;4.88;3.53;;;;;;;25.32;100.00;95934.81;5110245;28;20032;-65
2023/06/04 10:16:01;;;;;;;3.97;3.60;;;;;;;25.51;100.00;95922.13;5109236;28;20032;-65
2023/06/04 10:18:30;;;;;;;2.75;2.55;;;;;;;25.16;100.00;95894.00;5114998;28;20295;-65
2023/06/04 10:20:56;;;;;;;5.18;3.67;;;;;;;25.72;100.00;95891.06;5083295;28;20477;-65
2023/06/04 10:23:22;;;;;;;3.22;3.00;;;;;;;25.63;100.00;95884.41;5104042;28;20020;-65
2023/06/04 10:25:52;;;;;;;3.70;3.08;;;;;;;25.87;100.00;95876.31;5097303;28;20028;-65
2023/06/04 10:28:22;;;;;;;3.90;2.65;;;;;;;25.63;100.00;95889.78;5098132;28;20064;-65
2023/06/04 10:30:50;;;;;;;7.38;2.72;;;;;;;25.92;100.00;95889.09;5102105;28;20403;-65
2023/06/04 10:33:20;;;;;;;2.63;2.42;;;;;;;26.06;100.00;95868.09;5107405;28;20036;-66
2023/06/04 10:35:46;;;;;;;3.00;2.70;;;;;;;26.10;100.00;95874.66;5099998;28;20216;-65
2023/06/04 10:38:14;;;;;;;3.10;2.80;;;;;;;26.42;100.00;95860.81;5120183;27;20031;-65
2023/06/04 10:40:40;;;;;;;2.83;2.40;;;;;;;26.22;100.00;95850.38;5112259;28;20019;-65
2023/06/04 10:43:10;;;;;;;2.85;2.38;;;;;;;26.42;100.00;95842.72;5098940;28;20114;-65
2023/06/04 10:45:36;;;;;;;2.72;2.55;;;;;;;25.60;100.00;95874.09;5109543;27;20028;-65
2023/06/04 10:48:03;;;;;;;2.85;2.50;;;;;;;24.84;100.00;95871.88;5102426;28;20027;-66
2023/06/04 10:50:28;;;;;;;2.47;2.28;;;;;;;25.33;100.00;95871.78;5110093;28;20034;-65
2023/06/04 10:52:57;;;;;;;2.15;2.05;;;;;;;25.83;100.00;95848.19;5106885;28;20479;-65
2023/06/04 10:55:23;;;;;;;2.13;1.92;;;;;;;26.06;100.00;95841.13;5103191;28;20028;-64
2023/06/04 10:57:56;;;;;;;3.38;2.20;;;;;;;25.58;100.00;95841.16;5111418;28;20530;-66
2023/06/04 11:00:33;;;;;;;2.00;1.90;;;;;;;25.64;100.00;95842.06;5103082;28;20032;-64
2023/06/04 11:02:59;;;;;;;2.03;1.92;;;;;;;25.88;100.00;95851.81;5099855;28;20151;-66
2023/06/04 11:05:37;;;;;;;1.77;1.67;;;;;;;26.09;100.00;95837.94;5105450;28;20051;-65
2023/06/04 11:08:05;;;;;;;2.25;1.90;;;;;;;26.01;100.00;95804.91;5098327;28;20032;-65
2023/06/04 11:10:33;;;;;;;2.58;1.98;;;;;;;25.29;100.00;95825.63;5078666;28;20043;-66
2023/06/04 11:12:59;;;;;;;2.05;1.95;;;;;;;25.89;100.00;95845.38;5093044;28;20034;-65
2023/06/04 11:15:24;;;;;;;2.00;1.90;;;;;;;26.15;100.00;95839.69;5097179;28;20024;-65
2023/06/04 11:17:54;;;;;;;1.92;1.83;;;;;;;26.28;100.00;95823.28;5107678;28;20031;-66
2023/06/04 11:20:21;;;;;;;2.95;2.03;;;;;;;26.62;100.00;95808.25;5101092;28;20035;-66
2023/06/04 11:22:58;;;;;;;1.83;1.73;;;;;;;26.80;100.00;95764.03;5116254;28;20072;-66